sensor_id;sensor_type;location;lat;lon;timestamp;temperature;humidity
20481;DHT22;10399;50.754;3.366;2023-07-13T00:00:43;18.60;99.90
20481;DHT22;10399;50.754;3.366;2023-07-13T00:03:10;18.50;99.90
20481;DHT22;10399;50.754;3.366;2023-07-13T00:05:40;18.30;99.90
20481;DHT22;10399;50.754;3.366;2023-07-13T00:08:08;18.40;99.90
20481;DHT22;10399;50.754;3.366;2023-07-13T00:10:40;18.60;99.90
20481;DHT22;10399;50.754;3.366;2023-07-13T00:13:10;18.50;99.90
20481;DHT22;10399;50.754;3.366;2023-07-13T00:15:38;18.50;99.90
20481;DHT22;10399;50.754;3.366;2023-07-13T00:18:05;18.30;99.90
20481;DHT22;10399;50.754;3.366;2023-07-13T00:20:33;18.50;99.90
20481;DHT22;10399;50.754;3.366;2023-07-13T00:23:01;18.30;99.90
20481;DHT22;10399;50.754;3.366;2023-07-13T00:25:29;18.40;99.90
20481;DHT22;10399;50.754;3.366;2023-07-13T00:27:56;18.50;99.90
20481;DHT22;10399;50.754;3.366;2023-07-13T00:30:24;18.40;99.90
20481;DHT22;10399;50.754;3.366;2023-07-13T00:32:52;18.30;99.90
20481;DHT22;10399;50.754;3.366;2023-07-13T00:35:38;18.40;99.90
20481;DHT22;10399;50.754;3.366;2023-07-13T00:38:06;18.50;99.90
20481;DHT22;10399;50.754;3.366;2023-07-13T00:40:34;18.40;99.90
20481;DHT22;10399;50.754;3.366;2023-07-13T00:43:01;18.50;99.90
20481;DHT22;10399;50.754;3.366;2023-07-13T00:47:57;18.20;99.90
20481;DHT22;10399;50.754;3.366;2023-07-13T00:50:25;18.10;99.90
20481;DHT22;10399;50.754;3.366;2023-07-13T00:52:55;18.20;99.90
20481;DHT22;10399;50.754;3.366;2023-07-13T00:55:26;18.10;99.90
20481;DHT22;10399;50.754;3.366;2023-07-13T00:57:55;18.00;99.90
20481;DHT22;10399;50.754;3.366;2023-07-13T01:00:23;18.00;99.90
20481;DHT22;10399;50.754;3.366;2023-07-13T01:02:51;18.20;99.90
20481;DHT22;10399;50.754;3.366;2023-07-13T01:05:21;18.20;99.90
20481;DHT22;10399;50.754;3.366;2023-07-13T01:07:53;18.20;99.90
20481;DHT22;10399;50.754;3.366;2023-07-13T01:10:25;18.10;99.90
20481;DHT22;10399;50.754;3.366;2023-07-13T01:12:53;18.20;99.90
20481;DHT22;10399;50.754;3.366;2023-07-13T01:15:54;18.10;99.90
20481;DHT22;10399;50.754;3.366;2023-07-13T01:18:29;18.20;99.90
20481;DHT22;10399;50.754;3.366;2023-07-13T01:21:04;18.10;99.90
20481;DHT22;10399;50.754;3.366;2023-07-13T01:23:37;18.10;99.90
20481;DHT22;10399;50.754;3.366;2023-07-13T01:26:09;18.00;99.90
20481;DHT22;10399;50.754;3.366;2023-07-13T01:28:44;18.00;99.90
20481;DHT22;10399;50.754;3.366;2023-07-13T01:31:18;17.90;99.90
20481;DHT22;10399;50.754;3.366;2023-07-13T01:33:55;18.10;99.90
20481;DHT22;10399;50.754;3.366;2023-07-13T01:36:28;18.10;99.90
20481;DHT22;10399;50.754;3.366;2023-07-13T01:39:13;18.00;99.90
20481;DHT22;10399;50.754;3.366;2023-07-13T01:41:48;18.10;99.90
20481;DHT22;10399;50.754;3.366;2023-07-13T01:44:23;18.10;99.90
20481;DHT22;10399;50.754;3.366;2023-07-13T01:46:55;18.20;99.90
20481;DHT22;10399;50.754;3.366;2023-07-13T01:49:26;18.00;99.90
20481;DHT22;10399;50.754;3.366;2023-07-13T01:51:58;17.90;99.90
20481;DHT22;10399;50.754;3.366;2023-07-13T01:54:28;18.00;99.90
20481;DHT22;10399;50.754;3.366;2023-07-13T01:56:59;18.00;99.90
20481;DHT22;10399;50.754;3.366;2023-07-13T01:59:30;17.80;99.90
20481;DHT22;10399;50.754;3.366;2023-07-13T02:01:59;17.90;99.90
20481;DHT22;10399;50.754;3.366;2023-07-13T02:04:27;17.90;99.90
20481;DHT22;10399;50.754;3.366;2023-07-13T02:06:57;18.00;99.90
20481;DHT22;10399;50.754;3.366;2023-07-13T02:09:26;18.10;99.90
20481;DHT22;10399;50.754;3.366;2023-07-13T02:11:58;18.10;99.90
20481;DHT22;10399;50.754;3.366;2023-07-13T02:14:29;18.00;99.90
20481;DHT22;10399;50.754;3.366;2023-07-13T02:17:03;18.10;99.90
20481;DHT22;10399;50.754;3.366;2023-07-13T02:19:34;18.00;99.90
20481;DHT22;10399;50.754;3.366;2023-07-13T02:22:04;18.10;99.90
20481;DHT22;10399;50.754;3.366;2023-07-13T02:24:33;18.10;99.90
20481;DHT22;10399;50.754;3.366;2023-07-13T02:27:04;18.00;99.90
20481;DHT22;10399;50.754;3.366;2023-07-13T02:29:37;17.90;99.90
20481;DHT22;10399;50.754;3.366;2023-07-13T02:32:06;17.90;99.90
20481;DHT22;10399;50.754;3.366;2023-07-13T02:34:37;17.90;99.90
20481;DHT22;10399;50.754;3.366;2023-07-13T02:37:15;18.00;99.90
20481;DHT22;10399;50.754;3.366;2023-07-13T02:39:45;18.00;99.90
20481;DHT22;10399;50.754;3.366;2023-07-13T02:42:18;17.80;99.90
20481;DHT22;10399;50.754;3.366;2023-07-13T02:44:48;17.80;99.90
20481;DHT22;10399;50.754;3.366;2023-07-13T02:47:20;17.90;99.90
20481;DHT22;10399;50.754;3.366;2023-07-13T02:49:51;17.90;99.90
20481;DHT22;10399;50.754;3.366;2023-07-13T02:52:20;18.00;99.90
20481;DHT22;10399;50.754;3.366;2023-07-13T02:54:53;17.90;99.90
20481;DHT22;10399;50.754;3.366;2023-07-13T02:57:26;17.90;99.90
20481;DHT22;10399;50.754;3.366;2023-07-13T03:00:00;17.70;99.90
20481;DHT22;10399;50.754;3.366;2023-07-13T03:02:39;17.80;99.90
20481;DHT22;10399;50.754;3.366;2023-07-13T03:05:11;17.70;99.90
20481;DHT22;10399;50.754;3.366;2023-07-13T03:07:41;17.70;99.90
20481;DHT22;10399;50.754;3.366;2023-07-13T03:10:14;17.60;99.90
20481;DHT22;10399;50.754;3.366;2023-07-13T03:12:49;17.50;99.90
20481;DHT22;10399;50.754;3.366;2023-07-13T03:15:28;17.40;99.90
20481;DHT22;10399;50.754;3.366;2023-07-13T03:18:00;17.40;99.90
20481;DHT22;10399;50.754;3.366;2023-07-13T03:20:33;17.30;99.90
20481;DHT22;10399;50.754;3.366;2023-07-13T03:23:03;17.30;99.90
20481;DHT22;10399;50.754;3.366;2023-07-13T03:25:31;17.30;99.90
20481;DHT22;10399;50.754;3.366;2023-07-13T03:28:01;17.30;99.90
20481;DHT22;10399;50.754;3.366;2023-07-13T03:30:29;17.30;99.90
20481;DHT22;10399;50.754;3.366;2023-07-13T03:32:58;17.40;99.90
20481;DHT22;10399;50.754;3.366;2023-07-13T03:35:25;17.40;99.90
20481;DHT22;10399;50.754;3.366;2023-07-13T03:37:53;17.40;99.90
20481;DHT22;10399;50.754;3.366;2023-07-13T03:40:20;17.50;99.90
20481;DHT22;10399;50.754;3.366;2023-07-13T03:42:50;17.40;99.90
20481;DHT22;10399;50.754;3.366;2023-07-13T03:45:18;17.30;99.90
20481;DHT22;10399;50.754;3.366;2023-07-13T03:47:45;17.40;99.90
20481;DHT22;10399;50.754;3.366;2023-07-13T03:50:13;17.40;99.90
20481;DHT22;10399;50.754;3.366;2023-07-13T03:52:41;17.30;99.90
20481;DHT22;10399;50.754;3.366;2023-07-13T03:55:10;17.20;99.90
20481;DHT22;10399;50.754;3.366;2023-07-13T03:57:38;17.20;99.90
20481;DHT22;10399;50.754;3.366;2023-07-13T04:00:11;17.00;99.90
20481;DHT22;10399;50.754;3.366;2023-07-13T04:02:40;17.00;99.90
20481;DHT22;10399;50.754;3.366;2023-07-13T04:05:08;16.90;99.90
20481;DHT22;10399;50.754;3.366;2023-07-13T04:07:35;17.00;99.90
20481;DHT22;10399;50.754;3.366;2023-07-13T04:10:03;17.10;99.90
20481;DHT22;10399;50.754;3.366;2023-07-13T04:12:32;17.20;99.90
20481;DHT22;10399;50.754;3.366;2023-07-13T04:15:00;17.20;99.90
20481;DHT22;10399;50.754;3.366;2023-07-13T04:17:27;17.20;99.90
20481;DHT22;10399;50.754;3.366;2023-07-13T04:19:55;17.20;99.90
20481;DHT22;10399;50.754;3.366;2023-07-13T04:22:22;17.10;99.90
20481;DHT22;10399;50.754;3.366;2023-07-13T04:24:50;17.20;99.90
20481;DHT22;10399;50.754;3.366;2023-07-13T04:27:18;17.10;99.90
20481;DHT22;10399;50.754;3.366;2023-07-13T04:29:45;17.10;99.90
20481;DHT22;10399;50.754;3.366;2023-07-13T04:32:12;17.20;99.90
20481;DHT22;10399;50.754;3.366;2023-07-13T04:34:40;17.20;99.90
20481;DHT22;10399;50.754;3.366;2023-07-13T04:37:07;17.20;99.90
20481;DHT22;10399;50.754;3.366;2023-07-13T04:39:34;17.20;99.90
20481;DHT22;10399;50.754;3.366;2023-07-13T04:42:04;17.30;99.90
20481;DHT22;10399;50.754;3.366;2023-07-13T04:44:33;17.40;99.90
20481;DHT22;10399;50.754;3.366;2023-07-13T04:47:00;17.30;99.90
20481;DHT22;10399;50.754;3.366;2023-07-13T04:49:29;17.30;99.90
20481;DHT22;10399;50.754;3.366;2023-07-13T04:51:56;17.50;99.90
20481;DHT22;10399;50.754;3.366;2023-07-13T04:54:23;17.50;99.90
20481;DHT22;10399;50.754;3.366;2023-07-13T04:56:50;17.70;99.90
20481;DHT22;10399;50.754;3.366;2023-07-13T04:59:19;17.70;99.90
20481;DHT22;10399;50.754;3.366;2023-07-13T05:01:46;17.60;99.90
20481;DHT22;10399;50.754;3.366;2023-07-13T05:04:17;17.60;99.90
20481;DHT22;10399;50.754;3.366;2023-07-13T05:06:45;17.50;99.90
20481;DHT22;10399;50.754;3.366;2023-07-13T05:09:14;17.60;99.90
20481;DHT22;10399;50.754;3.366;2023-07-13T05:11:41;17.50;99.90
20481;DHT22;10399;50.754;3.366;2023-07-13T05:14:09;17.70;99.90
20481;DHT22;10399;50.754;3.366;2023-07-13T05:16:36;17.70;99.90
20481;DHT22;10399;50.754;3.366;2023-07-13T05:19:04;17.70;99.90
20481;DHT22;10399;50.754;3.366;2023-07-13T05:21:31;17.60;99.90
20481;DHT22;10399;50.754;3.366;2023-07-13T05:23:59;17.70;99.90
20481;DHT22;10399;50.754;3.366;2023-07-13T05:26:45;17.80;99.90
20481;DHT22;10399;50.754;3.366;2023-07-13T05:29:13;17.80;99.90
20481;DHT22;10399;50.754;3.366;2023-07-13T05:31:42;17.80;99.90
20481;DHT22;10399;50.754;3.366;2023-07-13T05:34:09;17.90;99.90
20481;DHT22;10399;50.754;3.366;2023-07-13T05:36:37;17.80;99.90
20481;DHT22;10399;50.754;3.366;2023-07-13T05:39:04;17.80;99.90
20481;DHT22;10399;50.754;3.366;2023-07-13T05:41:31;17.90;99.90
20481;DHT22;10399;50.754;3.366;2023-07-13T05:43:58;18.00;99.90
20481;DHT22;10399;50.754;3.366;2023-07-13T05:46:27;17.90;99.90
20481;DHT22;10399;50.754;3.366;2023-07-13T05:48:55;18.00;99.90
20481;DHT22;10399;50.754;3.366;2023-07-13T05:51:23;17.90;99.90
20481;DHT22;10399;50.754;3.366;2023-07-13T05:53:51;17.90;99.90
20481;DHT22;10399;50.754;3.366;2023-07-13T05:56:18;18.10;99.90
20481;DHT22;10399;50.754;3.366;2023-07-13T05:58:47;18.40;99.90
20481;DHT22;10399;50.754;3.366;2023-07-13T06:01:16;18.30;99.90
20481;DHT22;10399;50.754;3.366;2023-07-13T06:03:45;18.50;99.90
20481;DHT22;10399;50.754;3.366;2023-07-13T06:06:15;18.50;99.90
20481;DHT22;10399;50.754;3.366;2023-07-13T06:08:43;18.40;99.90
20481;DHT22;10399;50.754;3.366;2023-07-13T06:11:21;18.40;99.90
20481;DHT22;10399;50.754;3.366;2023-07-13T06:13:49;18.50;99.90
20481;DHT22;10399;50.754;3.366;2023-07-13T06:16:17;18.60;99.90
20481;DHT22;10399;50.754;3.366;2023-07-13T06:18:46;18.60;99.90
20481;DHT22;10399;50.754;3.366;2023-07-13T06:21:16;18.50;99.90
20481;DHT22;10399;50.754;3.366;2023-07-13T06:23:45;18.70;99.90
20481;DHT22;10399;50.754;3.366;2023-07-13T06:26:15;18.80;99.90
20481;DHT22;10399;50.754;3.366;2023-07-13T06:28:43;18.90;99.90
20481;DHT22;10399;50.754;3.366;2023-07-13T06:31:12;18.90;99.90
20481;DHT22;10399;50.754;3.366;2023-07-13T06:33:41;18.70;99.90
20481;DHT22;10399;50.754;3.366;2023-07-13T06:36:09;18.80;99.90
20481;DHT22;10399;50.754;3.366;2023-07-13T06:38:36;18.80;99.90
20481;DHT22;10399;50.754;3.366;2023-07-13T06:41:05;18.90;99.90
20481;DHT22;10399;50.754;3.366;2023-07-13T06:43:32;18.80;99.90
20481;DHT22;10399;50.754;3.366;2023-07-13T06:46:00;18.80;99.90
20481;DHT22;10399;50.754;3.366;2023-07-13T06:48:28;19.00;99.90
20481;DHT22;10399;50.754;3.366;2023-07-13T06:50:57;19.10;99.90
20481;DHT22;10399;50.754;3.366;2023-07-13T06:53:24;19.10;99.90
20481;DHT22;10399;50.754;3.366;2023-07-13T06:55:53;19.20;99.90
20481;DHT22;10399;50.754;3.366;2023-07-13T06:58:21;19.30;99.90
20481;DHT22;10399;50.754;3.366;2023-07-13T07:00:51;19.30;99.90
20481;DHT22;10399;50.754;3.366;2023-07-13T07:03:19;19.40;99.90
20481;DHT22;10399;50.754;3.366;2023-07-13T07:05:46;19.50;99.90
20481;DHT22;10399;50.754;3.366;2023-07-13T07:08:14;19.20;99.90
20481;DHT22;10399;50.754;3.366;2023-07-13T07:10:42;19.30;99.90
20481;DHT22;10399;50.754;3.366;2023-07-13T07:13:10;19.50;99.90
20481;DHT22;10399;50.754;3.366;2023-07-13T07:15:38;19.70;99.90
20481;DHT22;10399;50.754;3.366;2023-07-13T07:18:06;19.60;99.90
20481;DHT22;10399;50.754;3.366;2023-07-13T07:20:35;19.60;99.90
20481;DHT22;10399;50.754;3.366;2023-07-13T07:23:06;19.90;99.90
20481;DHT22;10399;50.754;3.366;2023-07-13T07:25:33;20.00;99.90
20481;DHT22;10399;50.754;3.366;2023-07-13T07:28:03;20.20;99.90
20481;DHT22;10399;50.754;3.366;2023-07-13T07:30:48;20.20;99.90
20481;DHT22;10399;50.754;3.366;2023-07-13T07:33:20;20.30;99.90
20481;DHT22;10399;50.754;3.366;2023-07-13T07:35:47;20.40;99.90
20481;DHT22;10399;50.754;3.366;2023-07-13T07:38:18;20.30;99.90
20481;DHT22;10399;50.754;3.366;2023-07-13T07:40:48;20.30;99.90
20481;DHT22;10399;50.754;3.366;2023-07-13T07:43:19;20.20;99.90
20481;DHT22;10399;50.754;3.366;2023-07-13T07:45:46;20.30;99.90
20481;DHT22;10399;50.754;3.366;2023-07-13T07:48:14;20.40;99.90
20481;DHT22;10399;50.754;3.366;2023-07-13T07:50:44;20.50;99.90
20481;DHT22;10399;50.754;3.366;2023-07-13T07:53:11;20.50;99.90
20481;DHT22;10399;50.754;3.366;2023-07-13T07:55:40;20.60;99.90
20481;DHT22;10399;50.754;3.366;2023-07-13T07:58:27;20.60;99.90
20481;DHT22;10399;50.754;3.366;2023-07-13T08:01:05;20.50;99.90
20481;DHT22;10399;50.754;3.366;2023-07-13T08:03:35;20.50;99.90
20481;DHT22;10399;50.754;3.366;2023-07-13T08:06:06;20.50;99.90
20481;DHT22;10399;50.754;3.366;2023-07-13T08:08:37;20.80;99.90
20481;DHT22;10399;50.754;3.366;2023-07-13T08:11:08;21.00;99.90
20481;DHT22;10399;50.754;3.366;2023-07-13T08:13:38;21.20;99.90
20481;DHT22;10399;50.754;3.366;2023-07-13T08:16:07;21.30;99.90
20481;DHT22;10399;50.754;3.366;2023-07-13T08:18:34;21.40;99.90
20481;DHT22;10399;50.754;3.366;2023-07-13T08:21:06;21.30;99.90
20481;DHT22;10399;50.754;3.366;2023-07-13T08:23:34;21.30;99.90
20481;DHT22;10399;50.754;3.366;2023-07-13T08:26:02;21.50;99.90
20481;DHT22;10399;50.754;3.366;2023-07-13T08:28:33;21.70;99.90
20481;DHT22;10399;50.754;3.366;2023-07-13T08:31:05;21.80;99.90
20481;DHT22;10399;50.754;3.366;2023-07-13T08:33:35;21.80;99.90
20481;DHT22;10399;50.754;3.366;2023-07-13T08:36:03;21.80;99.90
20481;DHT22;10399;50.754;3.366;2023-07-13T08:38:30;21.90;99.90
20481;DHT22;10399;50.754;3.366;2023-07-13T08:40:57;22.00;99.90
20481;DHT22;10399;50.754;3.366;2023-07-13T08:43:36;22.10;99.90
20481;DHT22;10399;50.754;3.366;2023-07-13T08:46:21;21.90;99.90
20481;DHT22;10399;50.754;3.366;2023-07-13T08:48:58;22.00;99.90
20481;DHT22;10399;50.754;3.366;2023-07-13T08:56:44;21.90;99.90
20481;DHT22;10399;50.754;3.366;2023-07-13T08:59:15;22.10;99.90
20481;DHT22;10399;50.754;3.366;2023-07-13T09:02:05;22.10;99.90
20481;DHT22;10399;50.754;3.366;2023-07-13T09:04:41;22.30;99.90
20481;DHT22;10399;50.754;3.366;2023-07-13T09:15:26;22.00;99.90
20481;DHT22;10399;50.754;3.366;2023-07-13T09:18:08;22.20;99.90
20481;DHT22;10399;50.754;3.366;2023-07-13T09:20:39;22.30;99.90
20481;DHT22;10399;50.754;3.366;2023-07-13T09:23:14;22.50;99.90
20481;DHT22;10399;50.754;3.366;2023-07-13T09:25:44;22.60;99.90
20481;DHT22;10399;50.754;3.366;2023-07-13T09:28:25;22.70;99.90
20481;DHT22;10399;50.754;3.366;2023-07-13T09:33:22;22.80;99.90
20481;DHT22;10399;50.754;3.366;2023-07-13T09:35:50;23.00;99.90
20481;DHT22;10399;50.754;3.366;2023-07-13T09:38:19;22.90;99.90
20481;DHT22;10399;50.754;3.366;2023-07-13T09:46:53;22.70;99.90
20481;DHT22;10399;50.754;3.366;2023-07-13T09:49:29;22.60;99.90
20481;DHT22;10399;50.754;3.366;2023-07-13T09:52:11;23.00;99.90
20481;DHT22;10399;50.754;3.366;2023-07-13T09:54:38;23.40;99.90
20481;DHT22;10399;50.754;3.366;2023-07-13T09:57:17;23.60;99.90
20481;DHT22;10399;50.754;3.366;2023-07-13T09:59:47;23.60;99.90
20481;DHT22;10399;50.754;3.366;2023-07-13T10:05:04;24.00;99.90
20481;DHT22;10399;50.754;3.366;2023-07-13T10:07:35;24.10;99.90
20481;DHT22;10399;50.754;3.366;2023-07-13T10:10:14;24.30;99.90
20481;DHT22;10399;50.754;3.366;2023-07-13T10:12:44;24.20;99.90
20481;DHT22;10399;50.754;3.366;2023-07-13T10:15:22;24.40;99.90
20481;DHT22;10399;50.754;3.366;2023-07-13T10:17:56;24.70;99.90
20481;DHT22;10399;50.754;3.366;2023-07-13T10:20:26;24.90;99.90
20481;DHT22;10399;50.754;3.366;2023-07-13T10:22:55;25.20;99.90
20481;DHT22;10399;50.754;3.366;2023-07-13T10:25:31;25.00;99.90
20481;DHT22;10399;50.754;3.366;2023-07-13T10:28:12;25.10;99.90
20481;DHT22;10399;50.754;3.366;2023-07-13T10:30:42;25.00;99.90
20481;DHT22;10399;50.754;3.366;2023-07-13T10:33:13;25.20;99.90
20481;DHT22;10399;50.754;3.366;2023-07-13T10:35:43;25.10;99.90
20481;DHT22;10399;50.754;3.366;2023-07-13T10:38:14;24.70;99.90
20481;DHT22;10399;50.754;3.366;2023-07-13T10:41:10;24.10;99.90
20481;DHT22;10399;50.754;3.366;2023-07-13T10:43:44;23.50;99.90
20481;DHT22;10399;50.754;3.366;2023-07-13T10:46:16;22.60;99.90
20481;DHT22;10399;50.754;3.366;2023-07-13T10:48:47;21.80;99.90
20481;DHT22;10399;50.754;3.366;2023-07-13T10:51:18;21.30;99.90
20481;DHT22;10399;50.754;3.366;2023-07-13T10:54:10;20.90;99.90
20481;DHT22;10399;50.754;3.366;2023-07-13T10:56:35;20.70;99.90
20481;DHT22;10399;50.754;3.366;2023-07-13T10:59:13;20.50;99.90
20481;DHT22;10399;50.754;3.366;2023-07-13T11:04:55;20.50;99.90
20481;DHT22;10399;50.754;3.366;2023-07-13T11:07:30;20.40;99.90
20481;DHT22;10399;50.754;3.366;2023-07-13T11:10:04;20.50;99.90
20481;DHT22;10399;50.754;3.366;2023-07-13T11:15:15;20.80;99.90
20481;DHT22;10399;50.754;3.366;2023-07-13T11:17:56;21.00;99.90
20481;DHT22;10399;50.754;3.366;2023-07-13T11:20:33;21.10;99.90
20481;DHT22;10399;50.754;3.366;2023-07-13T11:25:36;21.80;99.90
20481;DHT22;10399;50.754;3.366;2023-07-13T11:36:07;22.50;99.90
20481;DHT22;10399;50.754;3.366;2023-07-13T11:38:45;22.80;99.90
20481;DHT22;10399;50.754;3.366;2023-07-13T11:41:31;23.20;99.90
20481;DHT22;10399;50.754;3.366;2023-07-13T11:44:17;23.60;99.90
20481;DHT22;10399;50.754;3.366;2023-07-13T11:49:28;23.60;99.90
20481;DHT22;10399;50.754;3.366;2023-07-13T11:51:59;23.70;99.90
20481;DHT22;10399;50.754;3.366;2023-07-13T11:54:30;23.60;99.90
20481;DHT22;10399;50.754;3.366;2023-07-13T11:57:25;23.60;99.90
20481;DHT22;10399;50.754;3.366;2023-07-13T11:59:54;23.10;99.90
20481;DHT22;10399;50.754;3.366;2023-07-13T12:02:29;22.90;99.90
20481;DHT22;10399;50.754;3.366;2023-07-13T12:05:00;22.90;99.90
20481;DHT22;10399;50.754;3.366;2023-07-13T12:07:31;23.10;99.90
20481;DHT22;10399;50.754;3.366;2023-07-13T12:10:25;23.70;99.90
20481;DHT22;10399;50.754;3.366;2023-07-13T12:12:58;24.20;99.90
20481;DHT22;10399;50.754;3.366;2023-07-13T12:15:45;24.40;99.90
20481;DHT22;10399;50.754;3.366;2023-07-13T12:18:21;24.90;99.90
20481;DHT22;10399;50.754;3.366;2023-07-13T12:20:50;25.00;99.90
20481;DHT22;10399;50.754;3.366;2023-07-13T12:23:25;25.30;99.90
20481;DHT22;10399;50.754;3.366;2023-07-13T12:25:55;25.40;99.90
20481;DHT22;10399;50.754;3.366;2023-07-13T12:28:30;25.70;99.90
20481;DHT22;10399;50.754;3.366;2023-07-13T12:31:00;26.10;99.90
20481;DHT22;10399;50.754;3.366;2023-07-13T12:33:29;26.40;99.90
20481;DHT22;10399;50.754;3.366;2023-07-13T12:36:00;26.20;99.90
20481;DHT22;10399;50.754;3.366;2023-07-13T12:38:31;26.10;99.90
20481;DHT22;10399;50.754;3.366;2023-07-13T12:40:59;26.00;99.90
20481;DHT22;10399;50.754;3.366;2023-07-13T12:43:31;26.20;99.90
20481;DHT22;10399;50.754;3.366;2023-07-13T12:46:05;26.10;99.90
20481;DHT22;10399;50.754;3.366;2023-07-13T12:48:43;26.10;99.90
20481;DHT22;10399;50.754;3.366;2023-07-13T12:51:26;26.00;99.90
20481;DHT22;10399;50.754;3.366;2023-07-13T12:54:19;26.10;99.90
20481;DHT22;10399;50.754;3.366;2023-07-13T12:56:50;26.00;99.90
20481;DHT22;10399;50.754;3.366;2023-07-13T12:59:21;25.90;99.90
20481;DHT22;10399;50.754;3.366;2023-07-13T13:01:50;26.00;99.90
20481;DHT22;10399;50.754;3.366;2023-07-13T13:04:18;25.90;99.90
20481;DHT22;10399;50.754;3.366;2023-07-13T13:06:58;25.70;99.90
20481;DHT22;10399;50.754;3.366;2023-07-13T13:09:27;25.90;99.90
20481;DHT22;10399;50.754;3.366;2023-07-13T13:11:54;26.00;99.90
20481;DHT22;10399;50.754;3.366;2023-07-13T13:14:22;25.70;99.90
20481;DHT22;10399;50.754;3.366;2023-07-13T13:16:50;25.40;99.90
20481;DHT22;10399;50.754;3.366;2023-07-13T13:19:25;25.50;99.90
20481;DHT22;10399;50.754;3.366;2023-07-13T13:21:54;25.20;99.90
20481;DHT22;10399;50.754;3.366;2023-07-13T13:24:25;25.50;99.90
20481;DHT22;10399;50.754;3.366;2023-07-13T13:26:53;25.50;99.90
20481;DHT22;10399;50.754;3.366;2023-07-13T13:29:22;25.60;99.90
20481;DHT22;10399;50.754;3.366;2023-07-13T13:31:54;25.50;99.90
20481;DHT22;10399;50.754;3.366;2023-07-13T13:34:24;25.70;99.90
20481;DHT22;10399;50.754;3.366;2023-07-13T13:36:52;25.80;99.90
20481;DHT22;10399;50.754;3.366;2023-07-13T13:39:35;25.90;99.90
20481;DHT22;10399;50.754;3.366;2023-07-13T13:42:04;25.80;99.90
20481;DHT22;10399;50.754;3.366;2023-07-13T13:44:32;25.60;99.90
20481;DHT22;10399;50.754;3.366;2023-07-13T13:46:59;26.00;99.90
20481;DHT22;10399;50.754;3.366;2023-07-13T13:49:27;26.10;99.90
20481;DHT22;10399;50.754;3.366;2023-07-13T13:51:55;26.50;99.90
20481;DHT22;10399;50.754;3.366;2023-07-13T13:54:24;26.50;99.90
20481;DHT22;10399;50.754;3.366;2023-07-13T13:56:53;26.70;99.90
20481;DHT22;10399;50.754;3.366;2023-07-13T13:59:20;27.40;99.90
20481;DHT22;10399;50.754;3.366;2023-07-13T14:01:48;27.40;99.90
20481;DHT22;10399;50.754;3.366;2023-07-13T14:04:22;27.70;99.90
20481;DHT22;10399;50.754;3.366;2023-07-13T14:06:49;27.80;99.90
20481;DHT22;10399;50.754;3.366;2023-07-13T14:09:18;28.10;99.90
20481;DHT22;10399;50.754;3.366;2023-07-13T14:11:47;28.00;99.90
20481;DHT22;10399;50.754;3.366;2023-07-13T14:14:22;28.00;99.90
20481;DHT22;10399;50.754;3.366;2023-07-13T14:16:51;27.90;99.90
20481;DHT22;10399;50.754;3.366;2023-07-13T14:19:22;28.10;99.90
20481;DHT22;10399;50.754;3.366;2023-07-13T14:21:50;27.80;99.90
20481;DHT22;10399;50.754;3.366;2023-07-13T14:24:20;27.80;99.90
20481;DHT22;10399;50.754;3.366;2023-07-13T14:26:48;27.90;99.90
20481;DHT22;10399;50.754;3.366;2023-07-13T14:29:17;28.00;99.90
20481;DHT22;10399;50.754;3.366;2023-07-13T14:31:49;28.00;99.90
20481;DHT22;10399;50.754;3.366;2023-07-13T14:34:16;28.30;99.90
20481;DHT22;10399;50.754;3.366;2023-07-13T14:36:48;27.90;99.90
20481;DHT22;10399;50.754;3.366;2023-07-13T14:39:24;27.40;99.90
20481;DHT22;10399;50.754;3.366;2023-07-13T14:41:53;27.40;99.90
20481;DHT22;10399;50.754;3.366;2023-07-13T14:44:24;27.70;99.90
20481;DHT22;10399;50.754;3.366;2023-07-13T14:46:52;27.60;99.90
20481;DHT22;10399;50.754;3.366;2023-07-13T14:49:32;27.70;99.90
20481;DHT22;10399;50.754;3.366;2023-07-13T14:52:02;27.70;99.90
20481;DHT22;10399;50.754;3.366;2023-07-13T14:54:30;27.30;99.90
20481;DHT22;10399;50.754;3.366;2023-07-13T14:56:58;27.20;99.90
20481;DHT22;10399;50.754;3.366;2023-07-13T14:59:26;27.30;99.90
20481;DHT22;10399;50.754;3.366;2023-07-13T15:01:53;27.70;99.90
20481;DHT22;10399;50.754;3.366;2023-07-13T15:04:21;27.60;99.90
20481;DHT22;10399;50.754;3.366;2023-07-13T15:06:58;27.70;99.90
20481;DHT22;10399;50.754;3.366;2023-07-13T15:09:27;27.70;99.90
20481;DHT22;10399;50.754;3.366;2023-07-13T15:11:56;27.20;99.90
20481;DHT22;10399;50.754;3.366;2023-07-13T15:14:24;27.30;99.90
20481;DHT22;10399;50.754;3.366;2023-07-13T15:16:54;27.20;99.90
20481;DHT22;10399;50.754;3.366;2023-07-13T15:19:23;27.40;99.90
20481;DHT22;10399;50.754;3.366;2023-07-13T15:21:51;27.20;99.90
20481;DHT22;10399;50.754;3.366;2023-07-13T15:24:19;27.00;99.90
20481;DHT22;10399;50.754;3.366;2023-07-13T15:26:47;26.90;99.90
20481;DHT22;10399;50.754;3.366;2023-07-13T15:29:16;27.00;99.90
20481;DHT22;10399;50.754;3.366;2023-07-13T15:31:44;27.30;99.90
20481;DHT22;10399;50.754;3.366;2023-07-13T15:34:14;27.60;99.90
20481;DHT22;10399;50.754;3.366;2023-07-13T15:36:43;27.30;99.90
20481;DHT22;10399;50.754;3.366;2023-07-13T15:39:15;27.00;99.90
20481;DHT22;10399;50.754;3.366;2023-07-13T15:41:45;27.20;99.90
20481;DHT22;10399;50.754;3.366;2023-07-13T15:46:50;27.30;99.90
20481;DHT22;10399;50.754;3.366;2023-07-13T15:49:17;27.70;99.90
20481;DHT22;10399;50.754;3.366;2023-07-13T15:51:45;27.80;99.90
20481;DHT22;10399;50.754;3.366;2023-07-13T15:54:15;27.60;99.90
20481;DHT22;10399;50.754;3.366;2023-07-13T15:56:44;27.30;99.90
20481;DHT22;10399;50.754;3.366;2023-07-13T15:59:12;27.30;99.90
20481;DHT22;10399;50.754;3.366;2023-07-13T16:01:39;27.90;99.90
20481;DHT22;10399;50.754;3.366;2023-07-13T16:04:08;28.00;99.90
20481;DHT22;10399;50.754;3.366;2023-07-13T16:06:38;28.00;99.90
20481;DHT22;10399;50.754;3.366;2023-07-13T16:09:22;27.90;99.90
20481;DHT22;10399;50.754;3.366;2023-07-13T16:11:51;27.70;99.90
20481;DHT22;10399;50.754;3.366;2023-07-13T16:14:19;27.50;99.90
20481;DHT22;10399;50.754;3.366;2023-07-13T16:16:48;27.50;99.90
20481;DHT22;10399;50.754;3.366;2023-07-13T16:19:17;27.50;99.90
20481;DHT22;10399;50.754;3.366;2023-07-13T16:21:46;27.20;99.90
20481;DHT22;10399;50.754;3.366;2023-07-13T16:24:22;27.20;99.90
20481;DHT22;10399;50.754;3.366;2023-07-13T16:26:53;27.30;99.90
20481;DHT22;10399;50.754;3.366;2023-07-13T16:29:25;27.50;99.90
20481;DHT22;10399;50.754;3.366;2023-07-13T16:32:12;27.40;99.90
20481;DHT22;10399;50.754;3.366;2023-07-13T16:34:42;27.50;99.90
20481;DHT22;10399;50.754;3.366;2023-07-13T16:37:19;26.80;99.90
20481;DHT22;10399;50.754;3.366;2023-07-13T16:39:50;26.60;99.90
20481;DHT22;10399;50.754;3.366;2023-07-13T16:42:20;26.60;99.90